createdAt,value
2019-06-10T00:02:02.120Z,91.50
2019-06-10T00:05:23.870Z,91.30
2019-06-10T00:08:46.413Z,91.30
2019-06-10T00:12:10.085Z,91.30
2019-06-10T00:15:32.980Z,91.50
2019-06-10T00:18:55.616Z,91.80
2019-06-10T00:22:18.300Z,91.40
2019-06-10T00:25:41.778Z,91.80
2019-06-10T00:29:05.770Z,91.60
2019-06-10T00:32:28.347Z,91.70
2019-06-10T00:35:51.453Z,91.50
2019-06-10T00:39:14.012Z,92.20
2019-06-10T00:42:36.472Z,92.50
2019-06-10T00:45:59.989Z,93.20
2019-06-10T00:49:22.799Z,93.40
2019-06-10T00:52:45.562Z,94.30
2019-06-10T00:56:10.530Z,93.70
2019-06-10T00:59:32.595Z,93.50
2019-06-10T01:02:54.919Z,93.70
2019-06-10T01:06:17.472Z,93.40
2019-06-10T01:09:41.279Z,93.50
2019-06-10T01:13:05.001Z,93.70
2019-06-10T01:16:27.711Z,93.50
2019-06-10T01:19:50.892Z,93.50
2019-06-10T01:23:15.587Z,93.20
2019-06-10T01:26:37.436Z,93.30
2019-06-10T01:30:01.484Z,93.20
2019-06-10T01:33:23.688Z,93.10
2019-06-10T01:36:46.367Z,93.10
2019-06-10T01:40:12.895Z,93.00
2019-06-10T01:43:33.059Z,93.00
2019-06-10T01:46:55.672Z,93.00
2019-06-10T01:50:19.495Z,92.90
2019-06-10T01:53:42.275Z,93.10
2019-06-10T01:57:04.875Z,93.00
2019-06-10T02:00:35.107Z,92.80
2019-06-10T02:03:57.508Z,92.70
2019-06-10T02:07:22.897Z,92.40
2019-06-10T02:10:44.779Z,92.10
2019-06-10T02:14:07.528Z,92.50
2019-06-10T02:17:31.517Z,92.30
2019-06-10T02:20:54.230Z,92.00
2019-06-10T02:24:17.693Z,91.90
2019-06-10T02:27:41.468Z,92.00
2019-06-10T02:31:04.110Z,92.00
2019-06-10T02:34:27.704Z,92.00
2019-06-10T02:37:50.288Z,92.10
2019-06-10T02:41:16.343Z,92.20
2019-06-10T02:44:37.851Z,92.50
2019-06-10T02:48:00.207Z,93.80
2019-06-10T02:51:30.003Z,95.40
2019-06-10T02:54:47.779Z,97.90
2019-06-10T02:58:13.607Z,99.90
2019-06-10T03:01:37.920Z,99.90
2019-06-10T03:04:57.950Z,99.90
2019-06-10T03:08:25.937Z,99.90
2019-06-10T03:11:45.133Z,99.90
2019-06-10T03:15:07.630Z,99.90
2019-06-10T03:18:32.673Z,99.90
2019-06-10T03:21:54.142Z,99.90
2019-06-10T03:25:16.401Z,99.90
2019-06-10T03:28:38.735Z,99.90
2019-06-10T03:32:05.201Z,99.90
2019-06-10T03:35:26.867Z,99.90
2019-06-10T03:38:49.384Z,99.90
2019-06-10T03:42:12.606Z,99.90
2019-06-10T03:45:35.412Z,99.90
2019-06-10T03:48:57.722Z,99.90
2019-06-10T03:52:23.502Z,99.90
2019-06-10T03:55:44.828Z,99.90
2019-06-10T03:59:07.344Z,99.90
2019-06-10T04:02:29.482Z,99.90
2019-06-10T04:05:52.736Z,99.90
2019-06-10T04:09:15.274Z,99.90
2019-06-10T04:12:38.007Z,99.90
2019-06-10T04:16:02.332Z,99.90
2019-06-10T04:19:26.834Z,99.90
2019-06-10T04:22:49.236Z,99.90
2019-06-10T04:26:12.721Z,99.90
2019-06-10T04:29:35.503Z,99.90
2019-06-10T04:32:58.083Z,99.90
2019-06-10T04:36:22.766Z,99.90
2019-06-10T04:39:44.231Z,99.90
2019-06-10T04:43:06.840Z,99.90
2019-06-10T04:46:29.623Z,99.90
2019-06-10T04:49:52.474Z,99.90
2019-06-10T04:53:15.230Z,99.90
2019-06-10T04:56:37.666Z,99.90
2019-06-10T05:00:02.571Z,99.90
2019-06-10T05:03:26.545Z,99.90
2019-06-10T05:06:48.502Z,99.90
2019-06-10T05:10:12.637Z,99.90
2019-06-10T05:13:34.927Z,99.90
2019-06-10T05:16:57.380Z,99.90
2019-06-10T05:20:20.128Z,99.90
2019-06-10T05:23:43.240Z,99.90
2019-06-10T05:27:05.442Z,99.90
2019-06-10T05:30:29.571Z,99.90
2019-06-10T05:33:52.990Z,99.90
2019-06-10T05:37:15.701Z,99.90
2019-06-10T05:40:38.331Z,99.90
2019-06-10T05:44:02.665Z,99.90
2019-06-10T05:47:27.753Z,99.90
2019-06-10T05:51:02.629Z,99.90
2019-06-10T05:54:16.628Z,99.90
2019-06-10T05:57:39.292Z,99.90
2019-06-10T06:01:02.746Z,99.90
2019-06-10T06:04:26.380Z,99.90
2019-06-10T06:08:01.394Z,99.90
2019-06-10T06:11:13.301Z,99.90
2019-06-10T06:14:36.190Z,99.90
2019-06-10T06:18:07.178Z,99.90
2019-06-10T06:21:30.045Z,99.90
2019-06-10T06:24:46.675Z,99.90
2019-06-10T06:28:09.035Z,99.90
2019-06-10T06:31:33.349Z,99.90
2019-06-10T06:34:55.545Z,99.90
2019-06-10T06:38:17.845Z,99.90
2019-06-10T06:41:42.649Z,99.90
2019-06-10T06:45:05.264Z,99.90
2019-06-10T06:48:27.918Z,99.90
2019-06-10T06:51:56.115Z,99.90
2019-06-10T06:55:14.606Z,99.90
2019-06-10T06:58:38.600Z,99.90
2019-06-10T07:02:02.772Z,99.90
2019-06-10T07:05:25.401Z,99.90
2019-06-10T07:09:00.235Z,99.90
2019-06-10T07:12:13.034Z,99.90
2019-06-10T07:15:46.566Z,99.90
2019-06-10T07:19:05.302Z,99.90
2019-06-10T07:22:28.263Z,99.90
2019-06-10T07:25:53.082Z,99.90
2019-06-10T07:29:15.180Z,99.90
2019-06-10T07:32:39.194Z,99.90
2019-06-10T07:36:03.311Z,99.90
2019-06-10T07:39:26.173Z,99.90
2019-06-10T07:42:48.604Z,99.90
2019-06-10T07:46:13.367Z,99.90
2019-06-10T07:49:35.415Z,99.90
2019-06-10T07:52:57.935Z,99.90
2019-06-10T07:56:23.003Z,99.90
2019-06-10T07:59:45.797Z,99.90
2019-06-10T08:03:08.710Z,99.90
2019-06-10T08:06:33.528Z,99.90
2019-06-10T08:09:55.568Z,99.90
2019-06-10T08:13:17.908Z,99.90
2019-06-10T08:16:40.357Z,99.90
2019-06-10T08:20:02.804Z,99.90
2019-06-10T08:23:25.261Z,99.90
2019-06-10T08:26:47.851Z,99.90
2019-06-10T08:30:18.561Z,99.90
2019-06-10T08:33:34.995Z,99.90
2019-06-10T08:36:57.389Z,99.90
2019-06-10T08:40:20.116Z,99.90
2019-06-10T08:43:45.204Z,99.90
2019-06-10T08:47:06.939Z,99.90
2019-06-10T08:50:29.618Z,99.90
2019-06-10T08:53:53.215Z,99.90
2019-06-10T08:57:16.144Z,99.90
2019-06-10T09:00:39.197Z,99.90
2019-06-10T09:04:03.169Z,99.90
2019-06-10T09:07:26.051Z,99.90
2019-06-10T09:10:51.176Z,99.90
2019-06-10T09:14:12.784Z,99.90
2019-06-10T09:17:35.466Z,99.90
2019-06-10T09:20:57.691Z,99.90
2019-06-10T09:24:22.180Z,99.90
2019-06-10T09:27:47.925Z,99.90
2019-06-10T09:31:08.463Z,99.90
2019-06-10T09:34:33.010Z,99.90
2019-06-10T09:37:55.842Z,99.90
2019-06-10T09:41:18.226Z,99.90
2019-06-10T09:44:45.155Z,99.90
2019-06-10T09:48:04.707Z,99.90
2019-06-10T09:51:27.316Z,99.90
2019-06-10T09:54:54.275Z,99.90
2019-06-10T09:58:13.560Z,99.90
2019-06-10T10:01:36.206Z,99.90
2019-06-10T10:04:58.782Z,99.90
2019-06-10T10:08:23.278Z,99.90
2019-06-10T10:11:47.390Z,99.90
2019-06-10T10:15:26.082Z,99.90
2019-06-10T10:18:34.203Z,99.90
2019-06-10T10:21:58.395Z,99.90
2019-06-10T10:25:23.405Z,99.90
2019-06-10T10:28:46.194Z,99.90
2019-06-10T10:32:08.555Z,99.90
2019-06-10T10:35:32.677Z,99.90
2019-06-10T10:38:56.656Z,99.90
2019-06-10T10:42:19.245Z,99.90
2019-06-10T10:45:43.456Z,99.90
2019-06-10T10:49:05.698Z,99.90
2019-06-10T10:52:28.142Z,99.90
2019-06-10T10:55:51.856Z,99.90
2019-06-10T10:59:14.804Z,99.90
2019-06-10T11:02:37.129Z,99.90
2019-06-10T11:06:01.074Z,99.90
2019-06-10T11:09:26.129Z,99.90
2019-06-10T11:12:49.101Z,99.90
2019-06-10T11:16:11.771Z,99.90
2019-06-10T11:19:34.538Z,99.90
2019-06-10T11:22:57.781Z,99.90
2019-06-10T11:26:22.856Z,99.90
2019-06-10T11:29:46.095Z,99.90
2019-06-10T11:33:08.459Z,99.90
2019-06-10T11:36:30.720Z,99.90
2019-06-10T11:39:54.958Z,99.90
2019-06-10T11:43:17.564Z,99.90
2019-06-10T11:46:40.017Z,99.90
2019-06-10T11:50:03.567Z,99.90
2019-06-10T11:53:28.673Z,99.90
2019-06-10T11:56:49.829Z,99.90
2019-06-10T12:00:14.734Z,99.90
2019-06-10T12:03:36.928Z,99.90
2019-06-10T12:06:59.485Z,99.90
2019-06-10T12:10:23.322Z,99.90
2019-06-10T12:13:45.528Z,99.90
2019-06-10T12:17:31.155Z,99.90
2019-06-10T12:20:33.399Z,99.90
2019-06-10T12:24:00.067Z,99.90
2019-06-10T12:27:20.289Z,99.90
2019-06-10T12:30:42.528Z,99.90
2019-06-10T12:34:06.035Z,99.90
2019-06-10T12:37:28.679Z,99.90
2019-06-10T12:40:52.427Z,99.90
2019-06-10T12:44:15.232Z,99.90
2019-06-10T12:47:37.745Z,99.90
2019-06-10T12:51:01.690Z,99.90
2019-06-10T12:54:24.012Z,99.90
2019-06-10T12:57:46.186Z,99.90
2019-06-10T13:01:08.848Z,99.90
2019-06-10T13:04:31.654Z,99.90
2019-06-10T13:07:55.481Z,99.90
2019-06-10T13:11:17.948Z,99.10
2019-06-10T13:14:42.884Z,99.00
2019-06-10T13:18:07.560Z,98.70
2019-06-10T13:21:28.888Z,98.90
2019-06-10T13:24:53.532Z,99.50
2019-06-10T13:28:15.432Z,99.90
2019-06-10T13:31:37.814Z,99.50
2019-06-10T13:35:00.899Z,99.40
2019-06-10T13:38:25.853Z,99.50
2019-06-10T13:41:47.098Z,99.60
2019-06-10T13:45:10.990Z,99.60
2019-06-10T13:48:33.393Z,99.90
2019-06-10T13:51:55.631Z,99.60
2019-06-10T13:55:17.962Z,99.50
2019-06-10T13:58:45.076Z,99.40
2019-06-10T14:02:06.391Z,99.30
2019-06-10T14:05:28.132Z,99.20
2019-06-10T14:08:54.577Z,98.60
2019-06-10T14:12:17.315Z,99.20
2019-06-10T14:15:38.586Z,99.40
2019-06-10T14:19:02.123Z,99.80
2019-06-10T14:22:24.783Z,99.70
2019-06-10T14:25:47.375Z,99.90
2019-06-10T14:29:12.523Z,99.90
2019-06-10T14:32:34.114Z,99.90
2019-06-10T14:35:56.460Z,99.90
2019-06-10T14:39:19.116Z,99.90
2019-06-10T14:42:42.905Z,99.90
2019-06-10T14:46:07.214Z,99.90
2019-06-10T14:49:29.223Z,99.90
2019-06-10T14:52:51.927Z,99.90
2019-06-10T14:56:17.269Z,99.90
2019-06-10T14:59:38.164Z,99.90
2019-06-10T15:03:02.436Z,99.90
2019-06-10T15:06:24.066Z,99.90
2019-06-10T15:09:46.499Z,99.90
2019-06-10T15:13:09.716Z,99.90
2019-06-10T15:16:33.603Z,99.90
2019-06-10T15:19:56.479Z,99.90
2019-06-10T15:23:20.409Z,99.90
2019-06-10T15:26:42.796Z,99.90
2019-06-10T15:30:12.345Z,99.90
2019-06-10T15:33:32.412Z,99.90
2019-06-10T15:36:54.191Z,99.90
2019-06-10T15:40:17.918Z,99.90
2019-06-10T15:43:42.247Z,99.90
2019-06-10T15:47:04.343Z,99.90
2019-06-10T15:50:27.687Z,99.90
2019-06-10T15:53:49.853Z,99.90
2019-06-10T15:57:26.880Z,99.90
2019-06-10T16:00:36.358Z,99.90
2019-06-10T16:03:58.948Z,99.90
2019-06-10T16:07:25.354Z,99.90
2019-06-10T16:10:45.451Z,99.90
2019-06-10T16:14:07.781Z,99.90
2019-06-10T16:17:33.103Z,99.90
2019-06-10T16:20:53.896Z,99.90
2019-06-10T16:24:17.250Z,99.90
2019-06-10T16:27:47.189Z,99.90
2019-06-10T16:31:03.970Z,99.90
2019-06-10T16:34:28.812Z,99.90
2019-06-10T16:37:52.989Z,99.90
2019-06-10T16:41:15.317Z,99.90
2019-06-10T16:44:37.627Z,99.90
2019-06-10T16:48:02.349Z,99.90
2019-06-10T16:51:25.649Z,99.90
2019-06-10T16:54:48.495Z,99.90
2019-06-10T16:58:12.922Z,99.90
2019-06-10T17:01:35.495Z,99.90
2019-06-10T17:04:58.626Z,99.90
2019-06-10T17:08:26.062Z,99.90
2019-06-10T17:11:45.236Z,99.90
2019-06-10T17:15:09.058Z,99.90
2019-06-10T17:18:33.651Z,99.90
2019-06-10T17:21:55.861Z,99.90
2019-06-10T17:25:19.044Z,99.90
2019-06-10T17:28:42.864Z,99.90
2019-06-10T17:32:05.427Z,99.90
2019-06-10T17:35:28.611Z,99.90
2019-06-10T17:38:52.395Z,99.90
2019-06-10T17:42:14.841Z,99.90
2019-06-10T17:45:37.687Z,99.90
2019-06-10T17:49:02.444Z,99.90
2019-06-10T17:52:25.754Z,99.90
2019-06-10T17:55:48.415Z,99.90
2019-06-10T17:59:12.657Z,99.90
2019-06-10T18:02:39.169Z,99.90
2019-06-10T18:05:58.617Z,99.90
2019-06-10T18:09:22.718Z,99.90
2019-06-10T18:12:44.528Z,99.90
2019-06-10T18:16:06.960Z,99.90
2019-06-10T18:19:30.429Z,99.90
2019-06-10T18:22:53.036Z,99.90
2019-06-10T18:26:15.500Z,99.90
2019-06-10T18:29:37.706Z,99.90
2019-06-10T18:33:02.745Z,99.90
2019-06-10T18:36:24.655Z,99.90
2019-06-10T18:39:47.041Z,99.90
2019-06-10T18:43:12.044Z,99.90
2019-06-10T18:46:36.483Z,99.90
2019-06-10T18:49:58.028Z,99.90
2019-06-10T18:53:23.169Z,99.90
2019-06-10T18:56:44.352Z,99.90
2019-06-10T19:00:13.733Z,99.90
2019-06-10T19:03:34.716Z,99.90
2019-06-10T19:06:56.054Z,99.90
2019-06-10T19:10:19.486Z,99.90
2019-06-10T19:13:43.633Z,99.90
2019-06-10T19:17:06.138Z,99.90
2019-06-10T19:20:29.856Z,99.90
2019-06-10T19:23:53.228Z,99.90
2019-06-10T19:27:15.457Z,99.90
2019-06-10T19:30:39.374Z,99.90
2019-06-10T19:34:03.420Z,99.90
2019-06-10T19:37:25.830Z,99.90
2019-06-10T19:40:47.919Z,99.90
2019-06-10T19:44:12.879Z,99.90
2019-06-10T19:47:36.309Z,99.90
2019-06-10T19:50:59.052Z,99.90
2019-06-10T19:54:21.721Z,99.90
2019-06-10T19:57:44.393Z,99.90
2019-06-10T20:01:06.530Z,99.90
2019-06-10T20:04:28.953Z,99.90
2019-06-10T20:07:53.319Z,99.90
2019-06-10T20:11:15.157Z,99.90
2019-06-10T20:14:38.437Z,99.90
2019-06-10T20:18:02.846Z,99.90
2019-06-10T20:21:25.111Z,99.90
2019-06-10T20:24:48.885Z,99.90
2019-06-10T20:28:13.181Z,99.90
2019-06-10T20:31:35.829Z,99.90
2019-06-10T20:34:58.501Z,99.90
2019-06-10T20:38:22.307Z,99.90
2019-06-10T20:41:50.490Z,99.90
2019-06-10T20:45:09.636Z,99.90
2019-06-10T20:48:33.187Z,99.90
2019-06-10T20:52:09.837Z,99.90
2019-06-10T20:55:19.828Z,99.90
2019-06-10T20:58:43.773Z,99.90
2019-06-10T21:02:06.414Z,99.90
2019-06-10T21:05:29.324Z,99.90
2019-06-10T21:08:53.759Z,99.90
2019-06-10T21:12:15.797Z,99.90
2019-06-10T21:15:39.724Z,99.90
2019-06-10T21:19:02.596Z,99.90
2019-06-10T21:22:24.975Z,99.90
2019-06-10T21:25:49.451Z,99.90
2019-06-10T21:29:12.878Z,99.90
2019-06-10T21:32:35.552Z,99.90
2019-06-10T21:35:57.797Z,99.90
2019-06-10T21:39:20.454Z,99.90
2019-06-10T21:42:43.683Z,99.90
2019-06-10T21:46:06.123Z,99.90
2019-06-10T21:49:28.630Z,99.90
2019-06-10T21:52:53.104Z,99.90
2019-06-10T21:56:15.088Z,99.90
2019-06-10T21:59:37.588Z,99.90
2019-06-10T22:03:02.203Z,99.90
2019-06-10T22:06:24.147Z,99.90
2019-06-10T22:09:47.677Z,99.90
2019-06-10T22:13:12.376Z,99.90
2019-06-10T22:16:35.009Z,99.90
2019-06-10T22:19:57.755Z,99.90
2019-06-10T22:23:20.334Z,99.90
2019-06-10T22:26:42.616Z,99.90
2019-06-10T22:30:11.121Z,99.90
2019-06-10T22:33:29.562Z,99.90
2019-06-10T22:36:53.837Z,99.90
2019-06-10T22:40:16.215Z,99.90
2019-06-10T22:43:38.157Z,99.90
2019-06-10T22:47:02.798Z,99.90
2019-06-10T22:50:24.627Z,99.90
2019-06-10T22:53:48.260Z,99.90
2019-06-10T22:57:12.967Z,99.90
2019-06-10T23:00:35.704Z,99.90
2019-06-10T23:03:57.857Z,99.90
2019-06-10T23:07:22.926Z,99.90
2019-06-10T23:10:44.584Z,99.90
2019-06-10T23:14:07.041Z,99.90
2019-06-10T23:17:29.637Z,99.90
2019-06-10T23:20:55.585Z,99.90
2019-06-10T23:24:16.082Z,99.90
2019-06-10T23:27:41.072Z,99.90
2019-06-10T23:31:04.937Z,99.90
2019-06-10T23:34:26.027Z,99.90
2019-06-10T23:37:48.171Z,99.90
2019-06-10T23:41:13.012Z,99.90
2019-06-10T23:44:35.189Z,99.90
2019-06-10T23:47:58.071Z,99.90
2019-06-10T23:51:22.824Z,99.90
2019-06-10T23:54:45.292Z,99.90
2019-06-10T23:58:07.726Z,99.90
